Akogare — JPDL — position and weather

sailwx.info

Track history (hours):
 
Tides and Currents Weather Stations Pressure Air Temp Water Temp Dewpoint Dewpoint Depression Visibility Wind Speed Wind Dir Waves Ship Positions

Akogare (Japan)

Ship's website: http://www.akogare.or.jp/eng/top.html

Last reported at 2018-Jun-27 13:47 UTC. Time now 2018-Aug-14 07:05 UTC.
Position N 34°25' E 134°13'.
Warning: this ship's position is 47 days out of date.

Length 52 m; draft 4.5 m.

Type: Sailing vessel. MMSI: 431005001.

Date/timePositionNaut miles runAvg speedWind from/ knotsBaromVisibWave heightAir tempDewpointWater temp
2018-Jun-27 13:47N 34°25' E 134°13'6 6.9
2018-Jun-27 12:55N 34°25' E 134°20'3 7.0
2018-Jun-27 12:30N 34°25' E 134°23'3 6.9
2018-Jun-27 12:00N 34°27' E 134°27'3 6.7
2018-Jun-27 11:30N 34°28' E 134°31'7 7.3
2018-Jun-27 10:29N 34°31' E 134°39'4 7.8
2018-Jun-27 10:00N 34°32' E 134°44'10 8.5
2018-Jun-27 08:47N 34°36' E 134°55'2 7.3
2018-Jun-27 08:30N 34°37' E 134°57'3 6.5
2018-Jun-27 07:59N 34°37' E 135°01'3 5.6
2018-Jun-27 07:29N 34°36' E 135°04'2 4.7
2018-Jun-27 07:00N 34°37' E 135°07'2 3.1
2018-Jun-27 06:30N 34°37' E 135°09'1 2.3
2018-Jun-27 06:00N 34°38' E 135°10'1 2.2
2018-Jun-27 05:30N 34°39' E 135°11'2 4.1
2018-Jun-27 05:00N 34°41' E 135°11'0 0.4
2018-Jun-27 04:26N 34°41' E 135°11'0 0.0
2018-Jun-27 03:51N 34°41' E 135°11'0 0.0
2018-Jun-27 03:27N 34°41' E 135°11'0 0.0
2018-Jun-27 02:57N 34°41' E 135°11'0 0.0
2018-Jun-27 02:27N 34°41' E 135°11'0 0.0
2018-Jun-27 01:57N 34°41' E 135°11'0 0.0
2018-Jun-27 01:27N 34°41' E 135°11'0 0.0
2018-Jun-27 00:57N 34°41' E 135°11'0 0.0
2018-Jun-27 00:27N 34°41' E 135°11'0 0.0
2018-Jun-26 23:57N 34°41' E 135°11'0 0.0
2018-Jun-26 23:27N 34°41' E 135°11'0 0.0
2018-Jun-26 22:57N 34°41' E 135°11'0 0.0
2018-Jun-26 22:27N 34°41' E 135°11'0 0.0
2018-Jun-26 21:45N 34°41' E 135°11'0 0.0
2018-Jun-26 21:27N 34°41' E 135°11'0 0.0
2018-Jun-26 20:57N 34°41' E 135°11'0 0.0
2018-Jun-26 20:27N 34°41' E 135°11'0 0.0
2018-Jun-26 19:57N 34°41' E 135°11'0 0.0
2018-Jun-26 19:27N 34°41' E 135°11'0 0.0
2018-Jun-26 18:57N 34°41' E 135°11'0 0.0
2018-Jun-26 18:09N 34°41' E 135°11'0 0.0
2018-Jun-26 17:57N 34°41' E 135°11'0 0.0
2018-Jun-26 17:27N 34°41' E 135°11'0 0.0
2018-Jun-26 16:27N 34°41' E 135°11'0 0.0
2018-Jun-26 15:57N 34°41' E 135°11'0 0.0
2018-Jun-26 15:27N 34°41' E 135°11'0 0.0
2018-Jun-26 14:57N 34°41' E 135°11'0 0.0
2018-Jun-26 14:27N 34°41' E 135°11'0 0.0
2018-Jun-26 13:51N 34°41' E 135°11'0 0.0
2018-Jun-26 13:21N 34°41' E 135°11'0 0.0
2018-Jun-26 12:57N 34°41' E 135°11'0 0.0
2018-Jun-26 12:27N 34°41' E 135°11'0 0.0
2018-Jun-26 11:57N 34°41' E 135°11'0 0.0
2018-Jun-26 11:27N 34°41' E 135°11'0 0.0
2018-Jun-26 10:51N 34°41' E 135°11'0 0.0
2018-Jun-26 10:15N 34°41' E 135°11'0 0.0
2018-Jun-26 09:57N 34°41' E 135°11'0 0.0
2018-Jun-26 09:21N 34°41' E 135°11'0 0.0
2018-Jun-26 08:45N 34°41' E 135°11'0 0.0
2018-Jun-26 08:15N 34°41' E 135°11'0 0.0
2018-Jun-26 07:57N 34°41' E 135°11'0 0.0
2018-Jun-26 07:27N 34°41' E 135°11'0 0.0
2018-Jun-26 06:57N 34°41' E 135°11'0 0.0
2018-Jun-26 06:15N 34°41' E 135°11'0 0.0
2018-Jun-26 05:57N 34°41' E 135°11'0 0.0
2018-Jun-26 05:27N 34°41' E 135°11'0 0.0
2018-Jun-26 04:57N 34°41' E 135°11'0 0.0
2018-Jun-26 04:21N 34°41' E 135°11'0 0.0
2018-Jun-26 03:57N 34°41' E 135°11'0 0.0
2018-Jun-26 03:21N 34°41' E 135°11'0 0.0
2018-Jun-26 02:57N 34°41' E 135°11'0 0.0
2018-Jun-26 02:27N 34°41' E 135°11'0 0.0
2018-Jun-26 01:57N 34°41' E 135°11'0 0.0
2018-Jun-26 01:21N 34°41' E 135°11'0 0.0
2018-Jun-26 00:57N 34°41' E 135°11'0 0.0
2018-Jun-26 00:15N 34°41' E 135°11'0 0.0
2018-Jun-25 23:09N 34°41' E 135°11'0 0.0
2018-Jun-25 22:57N 34°41' E 135°11'0 0.0
2018-Jun-25 22:21N 34°41' E 135°11'0 0.0
2018-Jun-25 21:51N 34°41' E 135°11'0 0.0
2018-Jun-25 21:21N 34°41' E 135°11'0 0.0
2018-Jun-25 20:51N 34°41' E 135°11'0 0.0
2018-Jun-25 20:21N 34°41' E 135°11'0 0.0
2018-Jun-25 19:51N 34°41' E 135°11'0 0.0
2018-Jun-25 19:21N 34°41' E 135°11'0 0.0
2018-Jun-25 18:57N 34°41' E 135°11'0 0.0
2018-Jun-25 18:27N 34°41' E 135°11'0 0.0
2018-Jun-25 17:57N 34°41' E 135°11'0 0.0
2018-Jun-25 17:27N 34°41' E 135°11'0 0.0
2018-Jun-25 16:57N 34°41' E 135°11'0 0.0
2018-Jun-25 16:27N 34°41' E 135°11'0 0.0
2018-Jun-25 15:57N 34°41' E 135°11'0 0.0
2018-Jun-25 15:27N 34°41' E 135°11'0 0.0
2018-Jun-25 14:57N 34°41' E 135°11'0 0.0
2018-Jun-25 14:21N 34°41' E 135°11'0 0.0
2018-Jun-25 13:57N 34°41' E 135°11'0 0.0
2018-Jun-25 13:21N 34°41' E 135°11'0 0.0
2018-Jun-25 12:57N 34°41' E 135°11'0 0.0
2018-Jun-25 12:27N 34°41' E 135°11'0 0.0
2018-Jun-25 11:57N 34°41' E 135°11'0 0.0
2018-Jun-25 11:21N 34°41' E 135°11'0 0.0
2018-Jun-25 10:45N 34°41' E 135°11'0 0.0
2018-Jun-25 10:27N 34°41' E 135°11'0 0.0
2018-Jun-25 09:57N 34°41' E 135°11'0 0.0
2018-Jun-25 09:27N 34°41' E 135°11'0 0.0
2018-Jun-25 08:57N 34°41' E 135°11'0 0.0
2018-Jun-25 08:27N 34°41' E 135°11'0 0.0
2018-Jun-25 07:57N 34°41' E 135°11'0 0.0
2018-Jun-25 07:27N 34°41' E 135°11'0 0.0
2018-Jun-25 06:57N 34°41' E 135°11'0 0.0
2018-Jun-25 06:21N 34°41' E 135°11'0 0.0
2018-Jun-25 05:51N 34°41' E 135°11'0 0.0
2018-Jun-25 04:51N 34°41' E 135°11'0 0.0
2018-Jun-25 04:21N 34°41' E 135°11'0 0.0
2018-Jun-25 03:51N 34°41' E 135°11'0 0.0
2018-Jun-25 03:27N 34°41' E 135°11'0 0.0
2018-Jun-25 02:57N 34°41' E 135°11'0 0.0
2018-Jun-25 02:21N 34°41' E 135°11'0 0.0
2018-Jun-25 01:51N 34°41' E 135°11'0 0.0
2018-Jun-25 01:27N 34°41' E 135°11'0 0.0
2018-Jun-25 00:57N 34°41' E 135°11'0 0.0
2018-Jun-25 00:27N 34°41' E 135°11'0 0.0
2018-Jun-24 23:57N 34°41' E 135°11'0 0.0
2018-Jun-24 23:27N 34°41' E 135°11'0 0.0
2018-Jun-24 22:57N 34°41' E 135°11'0 0.0
2018-Jun-24 22:21N 34°41' E 135°11'0 0.0
2018-Jun-24 21:51N 34°41' E 135°11'0 0.0
2018-Jun-24 21:15N 34°41' E 135°11'0 0.0
2018-Jun-24 20:51N 34°41' E 135°11'0 0.0
2018-Jun-24 20:21N 34°41' E 135°11'0 0.0
2018-Jun-24 19:57N 34°41' E 135°11'0 0.0
2018-Jun-24 19:27N 34°41' E 135°11'0 0.0
2018-Jun-24 18:57N 34°41' E 135°11'0 0.0
2018-Jun-24 18:27N 34°41' E 135°11'0 0.0
2018-Jun-24 17:57N 34°41' E 135°11'0 0.0
2018-Jun-24 17:27N 34°41' E 135°11'0 0.0
2018-Jun-24 16:51N 34°41' E 135°11'0 0.0
2018-Jun-24 16:21N 34°41' E 135°11'0 0.0
2018-Jun-24 15:57N 34°41' E 135°11'0 0.0
2018-Jun-24 15:09N 34°41' E 135°11'0 0.0
2018-Jun-24 14:57N 34°41' E 135°11'0 0.0
2018-Jun-24 14:27N 34°41' E 135°11'0 0.0
2018-Jun-24 13:57N 34°41' E 135°11'0 0.0
2018-Jun-24 13:27N 34°41' E 135°11'0 0.0
2018-Jun-24 12:57N 34°41' E 135°11'0 0.0
2018-Jun-24 12:27N 34°41' E 135°11'0 0.0
2018-Jun-24 11:57N 34°41' E 135°11'0 0.0
2018-Jun-24 11:27N 34°41' E 135°11'0 0.0
2018-Jun-24 10:57N 34°41' E 135°11'0 0.0
2018-Jun-24 10:27N 34°41' E 135°11'0 0.0
2018-Jun-24 09:50N 34°41' E 135°11'0 0.3
2018-Jun-24 09:30N 34°41' E 135°11'2 4.7
2018-Jun-24 09:00N 34°38' E 135°11'2 5.0
2018-Jun-24 08:31N 34°38' E 135°08'2 5.0
2018-Jun-24 08:01N 34°39' E 135°11'2 3.8
2018-Jun-24 07:25N 34°41' E 135°11'0 0.0
2018-Jun-24 06:55N 34°41' E 135°11'0 0.0
2018-Jun-24 06:25N 34°41' E 135°11'0 0.0
2018-Jun-24 05:55N 34°41' E 135°11'0 0.0
2018-Jun-24 05:30N 34°41' E 135°11'1 2.1
2018-Jun-24 05:00N 34°40' E 135°12'3 5.0
2018-Jun-24 04:30N 34°38' E 135°12'3 5.5
2018-Jun-24 04:00N 34°38' E 135°16'1 1.2
2018-Jun-24 03:30N 34°38' E 135°15'2 4.2
2018-Jun-24 03:00N 34°36' E 135°15'3 6.8
2018-Jun-24 02:30N 34°35' E 135°11'3 5.2
2018-Jun-24 02:00N 34°32' E 135°09'3 5.0
2018-Jun-24 01:30N 34°31' E 135°07'3 5.9
2018-Jun-24 01:00N 34°28' E 135°06'3 6.4
2018-Jun-24 00:30N 34°25' E 135°04'3 6.5
2018-Jun-24 00:00N 34°22' E 135°02'3 6.1
2018-Jun-23 23:30N 34°20' E 135°01'3 5.8
2018-Jun-23 23:00N 34°17' E 134°59'3 5.4
2018-Jun-23 22:30N 34°14' E 134°59'3 5.7
2018-Jun-23 22:00N 34°11' E 134°60'3 6.0
2018-Jun-23 21:30N 34°08' E 134°59'3 5.7
2018-Jun-23 21:00N 34°06' E 134°59'3 5.5
2018-Jun-23 20:30N 34°03' E 134°59'3 5.3
2018-Jun-23 20:00N 34°00' E 134°59'3 5.6
2018-Jun-23 19:30N 33°57' E 134°59'3 5.5
2018-Jun-23 19:00N 33°55' E 134°59'3 5.3
2018-Jun-23 18:29N 33°53' E 135°01'7 0.3
2018-Jun-22 21:07N 33°48' E 135°08'1 5.6
2018-Jun-22 20:58N 33°48' E 135°07'3 5.8
2018-Jun-22 20:29N 33°50' E 135°04'3 6.2
2018-Jun-22 20:00N 33°52' E 135°02'4 6.3
2018-Jun-22 19:22N 33°55' E 134°59'3 6.3
2018-Jun-22 18:55N 33°58' E 134°58'3 6.2
2018-Jun-22 18:30N 34°01' E 134°58'3 6.1
2018-Jun-22 18:00N 34°04' E 134°58'3 6.2
2018-Jun-22 17:30N 34°07' E 134°58'3 6.2
2018-Jun-22 17:00N 34°10' E 134°58'3 6.2
2018-Jun-22 16:30N 34°13' E 134°58'3 7.0
2018-Jun-22 16:00N 34°17' E 134°58'3 5.9
2018-Jun-22 15:30N 34°20' E 134°59'3 5.8
2018-Jun-22 15:00N 34°22' E 135°01'3 5.7
2018-Jun-22 14:30N 34°25' E 135°03'3 5.5
2018-Jun-22 14:00N 34°27' E 135°04'3 6.2
2018-Jun-22 13:30N 34°29' E 135°07'3 6.4
2018-Jun-22 13:00N 34°32' E 135°09'3 5.6
2018-Jun-22 12:30N 34°34' E 135°11'3 5.3
2018-Jun-22 12:00N 34°37' E 135°11'3 5.9
2018-Jun-22 11:30N 34°40' E 135°11'1 1.9
2018-Jun-22 10:57N 34°41' E 135°11'0 0.0
2018-Jun-22 10:21N 34°41' E 135°11'0 0.0
2018-Jun-22 09:57N 34°41' E 135°11'0 0.0
2018-Jun-22 09:21N 34°41' E 135°11'0 0.0
2018-Jun-22 08:48N 34°41' E 135°11'0 0.0
2018-Jun-22 08:24N 34°41' E 135°11'0 0.0
2018-Jun-22 07:42N 34°41' E 135°11'0 0.0
2018-Jun-22 07:30N 34°41' E 135°11'0 0.0
2018-Jun-22 06:54N 34°41' E 135°11'0 0.0
2018-Jun-22 06:12N 34°41' E 135°11'0 0.0
2018-Jun-22 05:48N 34°41' E 135°11'0 0.0
2018-Jun-22 05:30N 34°41' E 135°11'0 0.0
2018-Jun-22 04:54N 34°41' E 135°11'0 0.0
2018-Jun-22 04:30N 34°41' E 135°11'0 0.0
2018-Jun-22 03:54N 34°41' E 135°11'0 0.0
2018-Jun-22 03:12N 34°41' E 135°11'0 0.0
2018-Jun-22 03:00N 34°41' E 135°11'0 0.0
2018-Jun-22 02:30N 34°41' E 135°11'0 0.0
2018-Jun-22 02:00N 34°41' E 135°11'0 0.0
2018-Jun-22 01:30N 34°41' E 135°11'0 0.0
2018-Jun-22 01:00N 34°41' E 135°11'0 0.0
2018-Jun-22 00:30N 34°41' E 135°11'0 0.0
2018-Jun-22 00:00N 34°41' E 135°11'0 0.0
2018-Jun-21 23:30N 34°41' E 135°11'0 0.0
2018-Jun-21 23:00N 34°41' E 135°11'0 0.0
2018-Jun-21 22:24N 34°41' E 135°11'0 0.0
2018-Jun-21 22:00N 34°41' E 135°11'0 0.0
2018-Jun-21 21:30N 34°41' E 135°11'0 0.0
2018-Jun-21 21:00N 34°41' E 135°11'0 0.0
2018-Jun-21 20:24N 34°41' E 135°11'0 0.0
2018-Jun-21 20:00N 34°41' E 135°11'0 0.0
2018-Jun-21 19:30N 34°41' E 135°11'0 0.0
2018-Jun-21 19:00N 34°41' E 135°11'0 0.0
2018-Jun-21 18:30N 34°41' E 135°11'0 0.0
2018-Jun-21 18:00N 34°41' E 135°11'0 0.0
2018-Jun-21 17:30N 34°41' E 135°11'0 0.0
2018-Jun-21 17:00N 34°41' E 135°11'0 0.0
2018-Jun-21 16:24N 34°41' E 135°11'0 0.0
2018-Jun-21 15:54N 34°41' E 135°11'0 0.0
2018-Jun-21 15:24N 34°41' E 135°11'0 0.0
2018-Jun-21 15:00N 34°41' E 135°11'0 0.0
2018-Jun-21 14:30N 34°41' E 135°11'0 0.0
2018-Jun-21 13:54N 34°41' E 135°11'0 0.0
2018-Jun-21 13:24N 34°41' E 135°11'0 0.0
2018-Jun-21 13:00N 34°41' E 135°11'0 0.0
2018-Jun-21 12:30N 34°41' E 135°11'0 0.0
2018-Jun-21 12:00N 34°41' E 135°11'0 0.0
2018-Jun-21 11:30N 34°41' E 135°11'0 0.0
2018-Jun-21 10:54N 34°41' E 135°11'0 0.0
2018-Jun-21 10:30N 34°41' E 135°11'0 0.0
2018-Jun-21 09:54N 34°41' E 135°11'0 0.0
2018-Jun-21 09:24N 34°41' E 135°11'0 0.0
2018-Jun-21 08:48N 34°41' E 135°11'0 0.0
2018-Jun-21 08:30N 34°41' E 135°11'0 0.0
2018-Jun-21 08:00N 34°41' E 135°11'0 0.0
2018-Jun-21 07:30N 34°41' E 135°11'0 0.0
2018-Jun-21 07:00N 34°41' E 135°11'0 0.0
2018-Jun-21 06:30N 34°41' E 135°11'0 0.0
2018-Jun-21 06:00N 34°41' E 135°11'0 0.0
2018-Jun-21 05:30N 34°41' E 135°11'0 0.0
2018-Jun-21 04:54N 34°41' E 135°11'0 0.0
2018-Jun-21 04:30N 34°41' E 135°11'0 0.0
2018-Jun-21 04:00N 34°41' E 135°11'0 0.0
2018-Jun-21 03:18N 34°41' E 135°11'0 0.0
2018-Jun-21 03:00N 34°41' E 135°11'0 0.0
2018-Jun-21 02:24N 34°41' E 135°11'0 0.0
2018-Jun-21 02:00N 34°41' E 135°11'0 0.0
2018-Jun-21 01:24N 34°41' E 135°11'0 0.0
2018-Jun-21 01:00N 34°41' E 135°11'0 0.0
2018-Jun-21 00:30N 34°41' E 135°11'0 0.0
2018-Jun-21 00:00N 34°41' E 135°11'0 0.0
2018-Jun-20 23:30N 34°41' E 135°11'0 0.0
2018-Jun-20 23:00N 34°41' E 135°11'0 0.0
2018-Jun-20 22:24N 34°41' E 135°11'0 0.0
2018-Jun-20 21:54N 34°41' E 135°11'0 0.0
2018-Jun-20 21:30N 34°41' E 135°11'0 0.0
2018-Jun-20 21:00N 34°41' E 135°11'0 0.0
2018-Jun-20 20:30N 34°41' E 135°11'0 0.0
2018-Jun-20 20:00N 34°41' E 135°11'0 0.0
2018-Jun-20 19:30N 34°41' E 135°11'0 0.0
2018-Jun-20 19:00N 34°41' E 135°11'0 0.0
2018-Jun-20 18:30N 34°41' E 135°11'0 0.0
2018-Jun-20 18:00N 34°41' E 135°11'0 0.0
2018-Jun-20 17:24N 34°41' E 135°11'0 0.0
2018-Jun-20 17:00N 34°41' E 135°11'0 0.0
2018-Jun-20 16:30N 34°41' E 135°11'0 0.0
2018-Jun-20 16:00N 34°41' E 135°11'0 0.0
2018-Jun-20 15:30N 34°41' E 135°11'0 0.0
2018-Jun-20 15:00N 34°41' E 135°11'0 0.0
2018-Jun-20 14:18N 34°41' E 135°11'0 0.0
2018-Jun-20 14:00N 34°41' E 135°11'0 0.0
2018-Jun-20 13:30N 34°41' E 135°11'0 0.0
2018-Jun-20 13:00N 34°41' E 135°11'0 0.0
2018-Jun-20 12:18N 34°41' E 135°11'0 0.0
2018-Jun-20 12:00N 34°41' E 135°11'0 0.0
2018-Jun-20 11:30N 34°41' E 135°11'0 0.0
2018-Jun-20 10:48N 34°41' E 135°11'0 0.0
2018-Jun-20 10:30N 34°41' E 135°11'0 0.0
2018-Jun-20 10:00N 34°41' E 135°11'0 0.0
2018-Jun-20 09:24N 34°41' E 135°11'0 0.0
2018-Jun-20 09:00N 34°41' E 135°11'0 0.0
2018-Jun-20 08:24N 34°41' E 135°11'0 0.0
2018-Jun-20 08:00N 34°41' E 135°11'0 0.0
2018-Jun-20 07:30N 34°41' E 135°11'0 0.0
2018-Jun-20 07:00N 34°41' E 135°11'0 0.0
2018-Jun-20 06:30N 34°41' E 135°11'0 0.0
2018-Jun-20 05:54N 34°41' E 135°11'0 0.0
2018-Jun-20 05:30N 34°41' E 135°11'0 0.0
2018-Jun-20 05:00N 34°41' E 135°11'0 0.0
2018-Jun-20 04:24N 34°41' E 135°11'0 0.0
2018-Jun-20 04:00N 34°41' E 135°11'0 0.0
2018-Jun-20 03:24N 34°41' E 135°11'0 0.0
2018-Jun-20 03:00N 34°41' E 135°11'0 0.0
2018-Jun-20 02:30N 34°41' E 135°11'0 0.0
2018-Jun-20 02:00N 34°41' E 135°11'0 0.0
2018-Jun-20 01:30N 34°41' E 135°11'0 0.0
2018-Jun-20 01:00N 34°41' E 135°11'0 0.0
2018-Jun-20 00:24N 34°41' E 135°11'0 0.0
2018-Jun-20 00:00N 34°41' E 135°11'0 0.0
2018-Jun-19 23:24N 34°41' E 135°11'0 0.0
2018-Jun-19 23:00N 34°41' E 135°11'0 0.0
2018-Jun-19 22:30N 34°41' E 135°11'0 0.0
2018-Jun-19 22:00N 34°41' E 135°11'0 0.0
2018-Jun-19 21:30N 34°41' E 135°11'0 0.0
2018-Jun-19 21:00N 34°41' E 135°11'0 0.0
2018-Jun-19 20:30N 34°41' E 135°11'0 0.0
2018-Jun-19 19:54N 34°41' E 135°11'0 0.0
2018-Jun-19 19:24N 34°41' E 135°11'0 0.0
2018-Jun-19 19:00N 34°41' E 135°11'0 0.0
2018-Jun-19 18:24N 34°41' E 135°11'0 0.0
2018-Jun-19 17:54N 34°41' E 135°11'0 0.0
2018-Jun-19 17:30N 34°41' E 135°11'0 0.0
2018-Jun-19 17:00N 34°41' E 135°11'0 0.0
2018-Jun-19 16:30N 34°41' E 135°11'0 0.0
2018-Jun-19 16:00N 34°41' E 135°11'0 0.0
2018-Jun-19 15:30N 34°41' E 135°11'0 0.0
2018-Jun-19 14:48N 34°41' E 135°11'0 0.0
2018-Jun-19 14:24N 34°41' E 135°11'0 0.0
2018-Jun-19 14:00N 34°41' E 135°11'0 0.0
2018-Jun-19 13:30N 34°41' E 135°11'0 0.0
2018-Jun-19 13:00N 34°41' E 135°11'0 0.0
2018-Jun-19 12:30N 34°41' E 135°11'0 0.0
2018-Jun-19 12:00N 34°41' E 135°11'0 0.0
2018-Jun-19 11:24N 34°41' E 135°11'0 0.0
2018-Jun-19 11:00N 34°41' E 135°11'0 0.0
2018-Jun-19 10:30N 34°41' E 135°11'0 0.0
2018-Jun-19 10:00N 34°41' E 135°11'0 0.0
2018-Jun-19 09:30N 34°41' E 135°11'0 0.0
2018-Jun-19 09:00N 34°41' E 135°11'0 0.0
2018-Jun-19 08:24N 34°41' E 135°11'0 0.0
2018-Jun-19 08:00N 34°41' E 135°11'0 0.0
2018-Jun-19 07:30N 34°41' E 135°11'0 0.0
2018-Jun-19 07:00N 34°41' E 135°11'0 0.0
2018-Jun-19 06:30N 34°41' E 135°11'0 0.0
2018-Jun-19 06:00N 34°41' E 135°11'0 0.0
2018-Jun-19 05:30N 34°41' E 135°11'0 0.0
2018-Jun-19 05:00N 34°41' E 135°11'0 0.0
2018-Jun-19 04:24N 34°41' E 135°11'0 0.0
2018-Jun-19 04:00N 34°41' E 135°11'0 0.0
2018-Jun-19 03:30N 34°41' E 135°11'0 0.0
2018-Jun-19 03:00N 34°41' E 135°11'0 0.0
2018-Jun-19 02:30N 34°41' E 135°11'0 0.0
2018-Jun-19 02:00N 34°41' E 135°11'0 0.0
2018-Jun-19 01:30N 34°41' E 135°11'0 0.0
2018-Jun-19 01:00N 34°41' E 135°11'0 0.0
2018-Jun-19 00:30N 34°41' E 135°11'0 0.0
2018-Jun-19 00:00N 34°41' E 135°11'0 0.0
2018-Jun-18 23:30N 34°41' E 135°11'0 0.0
2018-Jun-18 22:54N 34°41' E 135°11'0 0.0
2018-Jun-18 22:30N 34°41' E 135°11'0 0.0
2018-Jun-18 22:00N 34°41' E 135°11'0 0.0
2018-Jun-18 21:24N 34°41' E 135°11'0 0.0
2018-Jun-18 21:00N 34°41' E 135°11'0 0.0
2018-Jun-18 20:30N 34°41' E 135°11'0 0.0
2018-Jun-18 19:54N 34°41' E 135°11'0 0.0
2018-Jun-18 19:30N 34°41' E 135°11'0 0.0
2018-Jun-18 19:00N 34°41' E 135°11'0 0.0
2018-Jun-18 18:30N 34°41' E 135°11'0 0.0
2018-Jun-18 18:00N 34°41' E 135°11'0 0.0
2018-Jun-18 17:30N 34°41' E 135°11'0 0.0
2018-Jun-18 16:54N 34°41' E 135°11'0 0.0
2018-Jun-18 16:24N 34°41' E 135°11'0 0.0
2018-Jun-18 16:00N 34°41' E 135°11'0 0.0
2018-Jun-18 15:18N 34°41' E 135°11'0 0.0
2018-Jun-18 15:00N 34°41' E 135°11'0 0.0
2018-Jun-18 14:30N 34°41' E 135°11'0 0.0
2018-Jun-18 14:00N 34°41' E 135°11'0 0.0
2018-Jun-18 13:30N 34°41' E 135°11'0 0.0
2018-Jun-18 13:00N 34°41' E 135°11'0 0.0
2018-Jun-18 12:30N 34°41' E 135°11'0 0.0
2018-Jun-18 12:00N 34°41' E 135°11'0 0.0
2018-Jun-18 11:24N 34°41' E 135°11'0 0.0
2018-Jun-18 11:00N 34°41' E 135°11'0 0.0
2018-Jun-18 10:30N 34°41' E 135°11'0 0.0
2018-Jun-18 09:54N 34°41' E 135°11'0 0.0
2018-Jun-18 09:30N 34°41' E 135°11'0 0.0
2018-Jun-18 08:54N 34°41' E 135°11'0 0.0
2018-Jun-18 08:30N 34°41' E 135°11'0 0.0
2018-Jun-18 08:00N 34°41' E 135°11'0 0.0
2018-Jun-18 07:30N 34°41' E 135°11'0 0.0
2018-Jun-18 07:00N 34°41' E 135°11'0 0.0
2018-Jun-18 06:18N 34°41' E 135°11'0 0.0
2018-Jun-18 06:00N 34°41' E 135°11'0 0.0
2018-Jun-18 05:30N 34°41' E 135°11'0 0.0
2018-Jun-18 05:00N 34°41' E 135°11'0 0.0
2018-Jun-18 04:18N 34°41' E 135°11'0 0.0
2018-Jun-18 03:42N 34°41' E 135°11'0 0.0
2018-Jun-18 03:30N 34°41' E 135°11'0 0.0
2018-Jun-18 02:48N 34°41' E 135°11'0 0.0
2018-Jun-18 02:30N 34°41' E 135°11'0 0.0
2018-Jun-18 02:00N 34°41' E 135°11'0 0.0
2018-Jun-18 01:24N 34°41' E 135°11'0 0.0
2018-Jun-18 01:00N 34°41' E 135°11'0 0.0
2018-Jun-17 23:54N 34°41' E 135°11'0 0.0
2018-Jun-17 23:18N 34°41' E 135°11'0 0.0
2018-Jun-17 23:00N 34°41' E 135°11'0 0.0
2018-Jun-17 22:30N 34°41' E 135°11'0 0.0
2018-Jun-17 21:54N 34°41' E 135°11'0 0.0
2018-Jun-17 21:30N 34°41' E 135°11'0 0.0
2018-Jun-17 21:00N 34°41' E 135°11'0 0.0
2018-Jun-17 20:30N 34°41' E 135°11'0 0.0
2018-Jun-17 19:54N 34°41' E 135°11'0 0.0
2018-Jun-17 19:30N 34°41' E 135°11'0 0.0
2018-Jun-17 19:00N 34°41' E 135°11'0 0.0
2018-Jun-17 18:30N 34°41' E 135°11'0 0.0
2018-Jun-17 18:00N 34°41' E 135°11'0 0.0
2018-Jun-17 17:30N 34°41' E 135°11'0 0.0
2018-Jun-17 17:00N 34°41' E 135°11'0 0.0
2018-Jun-17 16:30N 34°41' E 135°11'0 0.0
2018-Jun-17 16:00N 34°41' E 135°11'0 0.0
2018-Jun-17 15:24N 34°41' E 135°11'0 0.0
2018-Jun-17 15:00N 34°41' E 135°11'0 0.0
2018-Jun-17 14:24N 34°41' E 135°11'0 0.0
2018-Jun-17 14:00N 34°41' E 135°11'  
Track history (hours):
 
Tides and Currents Weather Stations Pressure Air Temp Water Temp Dewpoint Dewpoint Depression Visibility Wind Speed Wind Dir Waves Ship Positions

Akogare (Japan)

Ship's website: http://www.akogare.or.jp/eng/top.html

Last reported at 2018-Jun-27 13:47 UTC. Time now 2018-Aug-14 07:05 UTC.
Position N 34°25' E 134°13'.
Warning: this ship's position is 47 days out of date.

Length 52 m; draft 4.5 m.

Type: Sailing vessel. MMSI: 431005001.

Date/timePositionNaut miles runAvg speedWind from/ knotsBaromVisibWave heightAir tempDewpointWater temp
2018-Jun-27 13:47N 34°25' E 134°13'6 6.9
2018-Jun-27 12:55N 34°25' E 134°20'3 7.0
2018-Jun-27 12:30N 34°25' E 134°23'3 6.9
2018-Jun-27 12:00N 34°27' E 134°27'3 6.7
2018-Jun-27 11:30N 34°28' E 134°31'7 7.3
2018-Jun-27 10:29N 34°31' E 134°39'4 7.8
2018-Jun-27 10:00N 34°32' E 134°44'10 8.5
2018-Jun-27 08:47N 34°36' E 134°55'2 7.3
2018-Jun-27 08:30N 34°37' E 134°57'3 6.5
2018-Jun-27 07:59N 34°37' E 135°01'3 5.6
2018-Jun-27 07:29N 34°36' E 135°04'2 4.7
2018-Jun-27 07:00N 34°37' E 135°07'2 3.1
2018-Jun-27 06:30N 34°37' E 135°09'1 2.3
2018-Jun-27 06:00N 34°38' E 135°10'1 2.2
2018-Jun-27 05:30N 34°39' E 135°11'2 4.1
2018-Jun-27 05:00N 34°41' E 135°11'0 0.4
2018-Jun-27 04:26N 34°41' E 135°11'0 0.0
2018-Jun-27 03:51N 34°41' E 135°11'0 0.0
2018-Jun-27 03:27N 34°41' E 135°11'0 0.0
2018-Jun-27 02:57N 34°41' E 135°11'0 0.0
2018-Jun-27 02:27N 34°41' E 135°11'0 0.0
2018-Jun-27 01:57N 34°41' E 135°11'0 0.0
2018-Jun-27 01:27N 34°41' E 135°11'0 0.0
2018-Jun-27 00:57N 34°41' E 135°11'0 0.0
2018-Jun-27 00:27N 34°41' E 135°11'0 0.0
2018-Jun-26 23:57N 34°41' E 135°11'0 0.0
2018-Jun-26 23:27N 34°41' E 135°11'0 0.0
2018-Jun-26 22:57N 34°41' E 135°11'0 0.0
2018-Jun-26 22:27N 34°41' E 135°11'0 0.0
2018-Jun-26 21:45N 34°41' E 135°11'0 0.0
2018-Jun-26 21:27N 34°41' E 135°11'0 0.0
2018-Jun-26 20:57N 34°41' E 135°11'0 0.0
2018-Jun-26 20:27N 34°41' E 135°11'0 0.0
2018-Jun-26 19:57N 34°41' E 135°11'0 0.0
2018-Jun-26 19:27N 34°41' E 135°11'0 0.0
2018-Jun-26 18:57N 34°41' E 135°11'0 0.0
2018-Jun-26 18:09N 34°41' E 135°11'0 0.0
2018-Jun-26 17:57N 34°41' E 135°11'0 0.0
2018-Jun-26 17:27N 34°41' E 135°11'0 0.0
2018-Jun-26 16:27N 34°41' E 135°11'0 0.0
2018-Jun-26 15:57N 34°41' E 135°11'0 0.0
2018-Jun-26 15:27N 34°41' E 135°11'0 0.0
2018-Jun-26 14:57N 34°41' E 135°11'0 0.0
2018-Jun-26 14:27N 34°41' E 135°11'0 0.0
2018-Jun-26 13:51N 34°41' E 135°11'0 0.0
2018-Jun-26 13:21N 34°41' E 135°11'0 0.0
2018-Jun-26 12:57N 34°41' E 135°11'0 0.0
2018-Jun-26 12:27N 34°41' E 135°11'0 0.0
2018-Jun-26 11:57N 34°41' E 135°11'0 0.0
2018-Jun-26 11:27N 34°41' E 135°11'0 0.0
2018-Jun-26 10:51N 34°41' E 135°11'0 0.0
2018-Jun-26 10:15N 34°41' E 135°11'0 0.0
2018-Jun-26 09:57N 34°41' E 135°11'0 0.0
2018-Jun-26 09:21N 34°41' E 135°11'0 0.0
2018-Jun-26 08:45N 34°41' E 135°11'0 0.0
2018-Jun-26 08:15N 34°41' E 135°11'0 0.0
2018-Jun-26 07:57N 34°41' E 135°11'0 0.0
2018-Jun-26 07:27N 34°41' E 135°11'0 0.0
2018-Jun-26 06:57N 34°41' E 135°11'0 0.0
2018-Jun-26 06:15N 34°41' E 135°11'0 0.0
2018-Jun-26 05:57N 34°41' E 135°11'0 0.0
2018-Jun-26 05:27N 34°41' E 135°11'0 0.0
2018-Jun-26 04:57N 34°41' E 135°11'0 0.0
2018-Jun-26 04:21N 34°41' E 135°11'0 0.0
2018-Jun-26 03:57N 34°41' E 135°11'0 0.0
2018-Jun-26 03:21N 34°41' E 135°11'0 0.0
2018-Jun-26 02:57N 34°41' E 135°11'0 0.0
2018-Jun-26 02:27N 34°41' E 135°11'0 0.0
2018-Jun-26 01:57N 34°41' E 135°11'0 0.0
2018-Jun-26 01:21N 34°41' E 135°11'0 0.0
2018-Jun-26 00:57N 34°41' E 135°11'0 0.0
2018-Jun-26 00:15N 34°41' E 135°11'0 0.0
2018-Jun-25 23:09N 34°41' E 135°11'0 0.0
2018-Jun-25 22:57N 34°41' E 135°11'0 0.0
2018-Jun-25 22:21N 34°41' E 135°11'0 0.0
2018-Jun-25 21:51N 34°41' E 135°11'0 0.0
2018-Jun-25 21:21N 34°41' E 135°11'0 0.0
2018-Jun-25 20:51N 34°41' E 135°11'0 0.0
2018-Jun-25 20:21N 34°41' E 135°11'0 0.0
2018-Jun-25 19:51N 34°41' E 135°11'0 0.0
2018-Jun-25 19:21N 34°41' E 135°11'0 0.0
2018-Jun-25 18:57N 34°41' E 135°11'0 0.0
2018-Jun-25 18:27N 34°41' E 135°11'0 0.0
2018-Jun-25 17:57N 34°41' E 135°11'0 0.0
2018-Jun-25 17:27N 34°41' E 135°11'0 0.0
2018-Jun-25 16:57N 34°41' E 135°11'0 0.0
2018-Jun-25 16:27N 34°41' E 135°11'0 0.0
2018-Jun-25 15:57N 34°41' E 135°11'0 0.0
2018-Jun-25 15:27N 34°41' E 135°11'0 0.0
2018-Jun-25 14:57N 34°41' E 135°11'0 0.0
2018-Jun-25 14:21N 34°41' E 135°11'0 0.0
2018-Jun-25 13:57N 34°41' E 135°11'0 0.0
2018-Jun-25 13:21N 34°41' E 135°11'0 0.0
2018-Jun-25 12:57N 34°41' E 135°11'0 0.0
2018-Jun-25 12:27N 34°41' E 135°11'0 0.0
2018-Jun-25 11:57N 34°41' E 135°11'0 0.0
2018-Jun-25 11:21N 34°41' E 135°11'0 0.0
2018-Jun-25 10:45N 34°41' E 135°11'0 0.0
2018-Jun-25 10:27N 34°41' E 135°11'0 0.0
2018-Jun-25 09:57N 34°41' E 135°11'0 0.0
2018-Jun-25 09:27N 34°41' E 135°11'0 0.0
2018-Jun-25 08:57N 34°41' E 135°11'0 0.0
2018-Jun-25 08:27N 34°41' E 135°11'0 0.0
2018-Jun-25 07:57N 34°41' E 135°11'0 0.0
2018-Jun-25 07:27N 34°41' E 135°11'0 0.0
2018-Jun-25 06:57N 34°41' E 135°11'0 0.0
2018-Jun-25 06:21N 34°41' E 135°11'0 0.0
2018-Jun-25 05:51N 34°41' E 135°11'0 0.0
2018-Jun-25 04:51N 34°41' E 135°11'0 0.0
2018-Jun-25 04:21N 34°41' E 135°11'0 0.0
2018-Jun-25 03:51N 34°41' E 135°11'0 0.0
2018-Jun-25 03:27N 34°41' E 135°11'0 0.0
2018-Jun-25 02:57N 34°41' E 135°11'0 0.0
2018-Jun-25 02:21N 34°41' E 135°11'0 0.0
2018-Jun-25 01:51N 34°41' E 135°11'0 0.0
2018-Jun-25 01:27N 34°41' E 135°11'0 0.0
2018-Jun-25 00:57N 34°41' E 135°11'0 0.0
2018-Jun-25 00:27N 34°41' E 135°11'0 0.0
2018-Jun-24 23:57N 34°41' E 135°11'0 0.0
2018-Jun-24 23:27N 34°41' E 135°11'0 0.0
2018-Jun-24 22:57N 34°41' E 135°11'0 0.0
2018-Jun-24 22:21N 34°41' E 135°11'0 0.0
2018-Jun-24 21:51N 34°41' E 135°11'0 0.0
2018-Jun-24 21:15N 34°41' E 135°11'0 0.0
2018-Jun-24 20:51N 34°41' E 135°11'0 0.0
2018-Jun-24 20:21N 34°41' E 135°11'0 0.0
2018-Jun-24 19:57N 34°41' E 135°11'0 0.0
2018-Jun-24 19:27N 34°41' E 135°11'0 0.0
2018-Jun-24 18:57N 34°41' E 135°11'0 0.0
2018-Jun-24 18:27N 34°41' E 135°11'0 0.0
2018-Jun-24 17:57N 34°41' E 135°11'0 0.0
2018-Jun-24 17:27N 34°41' E 135°11'0 0.0
2018-Jun-24 16:51N 34°41' E 135°11'0 0.0
2018-Jun-24 16:21N 34°41' E 135°11'0 0.0
2018-Jun-24 15:57N 34°41' E 135°11'0 0.0
2018-Jun-24 15:09N 34°41' E 135°11'0 0.0
2018-Jun-24 14:57N 34°41' E 135°11'0 0.0
2018-Jun-24 14:27N 34°41' E 135°11'0 0.0
2018-Jun-24 13:57N 34°41' E 135°11'0 0.0
2018-Jun-24 13:27N 34°41' E 135°11'0 0.0
2018-Jun-24 12:57N 34°41' E 135°11'0 0.0
2018-Jun-24 12:27N 34°41' E 135°11'0 0.0
2018-Jun-24 11:57N 34°41' E 135°11'0 0.0
2018-Jun-24 11:27N 34°41' E 135°11'0 0.0
2018-Jun-24 10:57N 34°41' E 135°11'0 0.0
2018-Jun-24 10:27N 34°41' E 135°11'0 0.0
2018-Jun-24 09:50N 34°41' E 135°11'0 0.3
2018-Jun-24 09:30N 34°41' E 135°11'2 4.7
2018-Jun-24 09:00N 34°38' E 135°11'2 5.0
2018-Jun-24 08:31N 34°38' E 135°08'2 5.0
2018-Jun-24 08:01N 34°39' E 135°11'2 3.8
2018-Jun-24 07:25N 34°41' E 135°11'0 0.0
2018-Jun-24 06:55N 34°41' E 135°11'0 0.0
2018-Jun-24 06:25N 34°41' E 135°11'0 0.0
2018-Jun-24 05:55N 34°41' E 135°11'0 0.0
2018-Jun-24 05:30N 34°41' E 135°11'1 2.1
2018-Jun-24 05:00N 34°40' E 135°12'3 5.0
2018-Jun-24 04:30N 34°38' E 135°12'3 5.5
2018-Jun-24 04:00N 34°38' E 135°16'1 1.2
2018-Jun-24 03:30N 34°38' E 135°15'2 4.2
2018-Jun-24 03:00N 34°36' E 135°15'3 6.8
2018-Jun-24 02:30N 34°35' E 135°11'3 5.2
2018-Jun-24 02:00N 34°32' E 135°09'3 5.0
2018-Jun-24 01:30N 34°31' E 135°07'3 5.9
2018-Jun-24 01:00N 34°28' E 135°06'3 6.4
2018-Jun-24 00:30N 34°25' E 135°04'3 6.5
2018-Jun-24 00:00N 34°22' E 135°02'3 6.1
2018-Jun-23 23:30N 34°20' E 135°01'3 5.8
2018-Jun-23 23:00N 34°17' E 134°59'3 5.4
2018-Jun-23 22:30N 34°14' E 134°59'3 5.7
2018-Jun-23 22:00N 34°11' E 134°60'3 6.0
2018-Jun-23 21:30N 34°08' E 134°59'3 5.7
2018-Jun-23 21:00N 34°06' E 134°59'3 5.5
2018-Jun-23 20:30N 34°03' E 134°59'3 5.3
2018-Jun-23 20:00N 34°00' E 134°59'3 5.6
2018-Jun-23 19:30N 33°57' E 134°59'3 5.5
2018-Jun-23 19:00N 33°55' E 134°59'3 5.3
2018-Jun-23 18:29N 33°53' E 135°01'7 0.3
2018-Jun-22 21:07N 33°48' E 135°08'1 5.6
2018-Jun-22 20:58N 33°48' E 135°07'3 5.8
2018-Jun-22 20:29N 33°50' E 135°04'3 6.2
2018-Jun-22 20:00N 33°52' E 135°02'4 6.3
2018-Jun-22 19:22N 33°55' E 134°59'3 6.3
2018-Jun-22 18:55N 33°58' E 134°58'3 6.2
2018-Jun-22 18:30N 34°01' E 134°58'3 6.1
2018-Jun-22 18:00N 34°04' E 134°58'3 6.2
2018-Jun-22 17:30N 34°07' E 134°58'3 6.2
2018-Jun-22 17:00N 34°10' E 134°58'3 6.2
2018-Jun-22 16:30N 34°13' E 134°58'3 7.0
2018-Jun-22 16:00N 34°17' E 134°58'3 5.9
2018-Jun-22 15:30N 34°20' E 134°59'3 5.8
2018-Jun-22 15:00N 34°22' E 135°01'3 5.7
2018-Jun-22 14:30N 34°25' E 135°03'3 5.5
2018-Jun-22 14:00N 34°27' E 135°04'3 6.2
2018-Jun-22 13:30N 34°29' E 135°07'3 6.4
2018-Jun-22 13:00N 34°32' E 135°09'3 5.6
2018-Jun-22 12:30N 34°34' E 135°11'3 5.3
2018-Jun-22 12:00N 34°37' E 135°11'3 5.9
2018-Jun-22 11:30N 34°40' E 135°11'1 1.9
2018-Jun-22 10:57N 34°41' E 135°11'0 0.0
2018-Jun-22 10:21N 34°41' E 135°11'0 0.0
2018-Jun-22 09:57N 34°41' E 135°11'0 0.0
2018-Jun-22 09:21N 34°41' E 135°11'0 0.0
2018-Jun-22 08:48N 34°41' E 135°11'0 0.0
2018-Jun-22 08:24N 34°41' E 135°11'0 0.0
2018-Jun-22 07:42N 34°41' E 135°11'0 0.0
2018-Jun-22 07:30N 34°41' E 135°11'0 0.0
2018-Jun-22 06:54N 34°41' E 135°11'0 0.0
2018-Jun-22 06:12N 34°41' E 135°11'0 0.0
2018-Jun-22 05:48N 34°41' E 135°11'0 0.0
2018-Jun-22 05:30N 34°41' E 135°11'0 0.0
2018-Jun-22 04:54N 34°41' E 135°11'0 0.0
2018-Jun-22 04:30N 34°41' E 135°11'0 0.0
2018-Jun-22 03:54N 34°41' E 135°11'0 0.0
2018-Jun-22 03:12N 34°41' E 135°11'0 0.0
2018-Jun-22 03:00N 34°41' E 135°11'0 0.0
2018-Jun-22 02:30N 34°41' E 135°11'0 0.0
2018-Jun-22 02:00N 34°41' E 135°11'0 0.0
2018-Jun-22 01:30N 34°41' E 135°11'0 0.0
2018-Jun-22 01:00N 34°41' E 135°11'0 0.0
2018-Jun-22 00:30N 34°41' E 135°11'0 0.0
2018-Jun-22 00:00N 34°41' E 135°11'0 0.0
2018-Jun-21 23:30N 34°41' E 135°11'0 0.0
2018-Jun-21 23:00N 34°41' E 135°11'0 0.0
2018-Jun-21 22:24N 34°41' E 135°11'0 0.0
2018-Jun-21 22:00N 34°41' E 135°11'0 0.0
2018-Jun-21 21:30N 34°41' E 135°11'0 0.0
2018-Jun-21 21:00N 34°41' E 135°11'0 0.0
2018-Jun-21 20:24N 34°41' E 135°11'0 0.0
2018-Jun-21 20:00N 34°41' E 135°11'0 0.0
2018-Jun-21 19:30N 34°41' E 135°11'0 0.0
2018-Jun-21 19:00N 34°41' E 135°11'0 0.0
2018-Jun-21 18:30N 34°41' E 135°11'0 0.0
2018-Jun-21 18:00N 34°41' E 135°11'0 0.0
2018-Jun-21 17:30N 34°41' E 135°11'0 0.0
2018-Jun-21 17:00N 34°41' E 135°11'0 0.0
2018-Jun-21 16:24N 34°41' E 135°11'0 0.0
2018-Jun-21 15:54N 34°41' E 135°11'0 0.0
2018-Jun-21 15:24N 34°41' E 135°11'0 0.0
2018-Jun-21 15:00N 34°41' E 135°11'0 0.0
2018-Jun-21 14:30N 34°41' E 135°11'0 0.0
2018-Jun-21 13:54N 34°41' E 135°11'0 0.0
2018-Jun-21 13:24N 34°41' E 135°11'0 0.0
2018-Jun-21 13:00N 34°41' E 135°11'0 0.0
2018-Jun-21 12:30N 34°41' E 135°11'0 0.0
2018-Jun-21 12:00N 34°41' E 135°11'0 0.0
2018-Jun-21 11:30N 34°41' E 135°11'0 0.0
2018-Jun-21 10:54N 34°41' E 135°11'0 0.0
2018-Jun-21 10:30N 34°41' E 135°11'0 0.0
2018-Jun-21 09:54N 34°41' E 135°11'0 0.0
2018-Jun-21 09:24N 34°41' E 135°11'0 0.0
2018-Jun-21 08:48N 34°41' E 135°11'0 0.0
2018-Jun-21 08:30N 34°41' E 135°11'0 0.0
2018-Jun-21 08:00N 34°41' E 135°11'0 0.0
2018-Jun-21 07:30N 34°41' E 135°11'0 0.0
2018-Jun-21 07:00N 34°41' E 135°11'0 0.0
2018-Jun-21 06:30N 34°41' E 135°11'0 0.0
2018-Jun-21 06:00N 34°41' E 135°11'0 0.0
2018-Jun-21 05:30N 34°41' E 135°11'0 0.0
2018-Jun-21 04:54N 34°41' E 135°11'0 0.0
2018-Jun-21 04:30N 34°41' E 135°11'0 0.0
2018-Jun-21 04:00N 34°41' E 135°11'0 0.0
2018-Jun-21 03:18N 34°41' E 135°11'0 0.0
2018-Jun-21 03:00N 34°41' E 135°11'0 0.0
2018-Jun-21 02:24N 34°41' E 135°11'0 0.0
2018-Jun-21 02:00N 34°41' E 135°11'0 0.0
2018-Jun-21 01:24N 34°41' E 135°11'0 0.0
2018-Jun-21 01:00N 34°41' E 135°11'0 0.0
2018-Jun-21 00:30N 34°41' E 135°11'0 0.0
2018-Jun-21 00:00N 34°41' E 135°11'0 0.0
2018-Jun-20 23:30N 34°41' E 135°11'0 0.0
2018-Jun-20 23:00N 34°41' E 135°11'0 0.0
2018-Jun-20 22:24N 34°41' E 135°11'0 0.0
2018-Jun-20 21:54N 34°41' E 135°11'0 0.0
2018-Jun-20 21:30N 34°41' E 135°11'0 0.0
2018-Jun-20 21:00N 34°41' E 135°11'0 0.0
2018-Jun-20 20:30N 34°41' E 135°11'0 0.0
2018-Jun-20 20:00N 34°41' E 135°11'0 0.0
2018-Jun-20 19:30N 34°41' E 135°11'0 0.0
2018-Jun-20 19:00N 34°41' E 135°11'0 0.0
2018-Jun-20 18:30N 34°41' E 135°11'0 0.0
2018-Jun-20 18:00N 34°41' E 135°11'0 0.0
2018-Jun-20 17:24N 34°41' E 135°11'0 0.0
2018-Jun-20 17:00N 34°41' E 135°11'0 0.0
2018-Jun-20 16:30N 34°41' E 135°11'0 0.0
2018-Jun-20 16:00N 34°41' E 135°11'0 0.0
2018-Jun-20 15:30N 34°41' E 135°11'0 0.0
2018-Jun-20 15:00N 34°41' E 135°11'0 0.0
2018-Jun-20 14:18N 34°41' E 135°11'0 0.0
2018-Jun-20 14:00N 34°41' E 135°11'0 0.0
2018-Jun-20 13:30N 34°41' E 135°11'0 0.0
2018-Jun-20 13:00N 34°41' E 135°11'0 0.0
2018-Jun-20 12:18N 34°41' E 135°11'0 0.0
2018-Jun-20 12:00N 34°41' E 135°11'0 0.0
2018-Jun-20 11:30N 34°41' E 135°11'0 0.0
2018-Jun-20 10:48N 34°41' E 135°11'0 0.0
2018-Jun-20 10:30N 34°41' E 135°11'0 0.0
2018-Jun-20 10:00N 34°41' E 135°11'0 0.0
2018-Jun-20 09:24N 34°41' E 135°11'0 0.0
2018-Jun-20 09:00N 34°41' E 135°11'0 0.0
2018-Jun-20 08:24N 34°41' E 135°11'0 0.0
2018-Jun-20 08:00N 34°41' E 135°11'0 0.0
2018-Jun-20 07:30N 34°41' E 135°11'0 0.0
2018-Jun-20 07:00N 34°41' E 135°11'0 0.0
2018-Jun-20 06:30N 34°41' E 135°11'0 0.0
2018-Jun-20 05:54N 34°41' E 135°11'0 0.0
2018-Jun-20 05:30N 34°41' E 135°11'0 0.0
2018-Jun-20 05:00N 34°41' E 135°11'0 0.0
2018-Jun-20 04:24N 34°41' E 135°11'0 0.0
2018-Jun-20 04:00N 34°41' E 135°11'0 0.0
2018-Jun-20 03:24N 34°41' E 135°11'0 0.0
2018-Jun-20 03:00N 34°41' E 135°11'0 0.0
2018-Jun-20 02:30N 34°41' E 135°11'0 0.0
2018-Jun-20 02:00N 34°41' E 135°11'0 0.0
2018-Jun-20 01:30N 34°41' E 135°11'0 0.0
2018-Jun-20 01:00N 34°41' E 135°11'0 0.0
2018-Jun-20 00:24N 34°41' E 135°11'0 0.0
2018-Jun-20 00:00N 34°41' E 135°11'0 0.0
2018-Jun-19 23:24N 34°41' E 135°11'0 0.0
2018-Jun-19 23:00N 34°41' E 135°11'0 0.0
2018-Jun-19 22:30N 34°41' E 135°11'0 0.0
2018-Jun-19 22:00N 34°41' E 135°11'0 0.0
2018-Jun-19 21:30N 34°41' E 135°11'0 0.0
2018-Jun-19 21:00N 34°41' E 135°11'0 0.0
2018-Jun-19 20:30N 34°41' E 135°11'0 0.0
2018-Jun-19 19:54N 34°41' E 135°11'0 0.0
2018-Jun-19 19:24N 34°41' E 135°11'0 0.0
2018-Jun-19 19:00N 34°41' E 135°11'0 0.0
2018-Jun-19 18:24N 34°41' E 135°11'0 0.0
2018-Jun-19 17:54N 34°41' E 135°11'0 0.0
2018-Jun-19 17:30N 34°41' E 135°11'0 0.0
2018-Jun-19 17:00N 34°41' E 135°11'0 0.0
2018-Jun-19 16:30N 34°41' E 135°11'0 0.0
2018-Jun-19 16:00N 34°41' E 135°11'0 0.0
2018-Jun-19 15:30N 34°41' E 135°11'0 0.0
2018-Jun-19 14:48N 34°41' E 135°11'0 0.0
2018-Jun-19 14:24N 34°41' E 135°11'0 0.0
2018-Jun-19 14:00N 34°41' E 135°11'0 0.0
2018-Jun-19 13:30N 34°41' E 135°11'0 0.0
2018-Jun-19 13:00N 34°41' E 135°11'0 0.0
2018-Jun-19 12:30N 34°41' E 135°11'0 0.0
2018-Jun-19 12:00N 34°41' E 135°11'0 0.0
2018-Jun-19 11:24N 34°41' E 135°11'0 0.0
2018-Jun-19 11:00N 34°41' E 135°11'0 0.0
2018-Jun-19 10:30N 34°41' E 135°11'0 0.0
2018-Jun-19 10:00N 34°41' E 135°11'0 0.0
2018-Jun-19 09:30N 34°41' E 135°11'0 0.0
2018-Jun-19 09:00N 34°41' E 135°11'0 0.0
2018-Jun-19 08:24N 34°41' E 135°11'0 0.0
2018-Jun-19 08:00N 34°41' E 135°11'0 0.0
2018-Jun-19 07:30N 34°41' E 135°11'0 0.0
2018-Jun-19 07:00N 34°41' E 135°11'0 0.0
2018-Jun-19 06:30N 34°41' E 135°11'0 0.0
2018-Jun-19 06:00N 34°41' E 135°11'0 0.0
2018-Jun-19 05:30N 34°41' E 135°11'0 0.0
2018-Jun-19 05:00N 34°41' E 135°11'0 0.0
2018-Jun-19 04:24N 34°41' E 135°11'0 0.0
2018-Jun-19 04:00N 34°41' E 135°11'0 0.0
2018-Jun-19 03:30N 34°41' E 135°11'0 0.0
2018-Jun-19 03:00N 34°41' E 135°11'0 0.0
2018-Jun-19 02:30N 34°41' E 135°11'0 0.0
2018-Jun-19 02:00N 34°41' E 135°11'0 0.0
2018-Jun-19 01:30N 34°41' E 135°11'0 0.0
2018-Jun-19 01:00N 34°41' E 135°11'0 0.0
2018-Jun-19 00:30N 34°41' E 135°11'0 0.0
2018-Jun-19 00:00N 34°41' E 135°11'0 0.0
2018-Jun-18 23:30N 34°41' E 135°11'0 0.0
2018-Jun-18 22:54N 34°41' E 135°11'0 0.0
2018-Jun-18 22:30N 34°41' E 135°11'0 0.0
2018-Jun-18 22:00N 34°41' E 135°11'0 0.0
2018-Jun-18 21:24N 34°41' E 135°11'0 0.0
2018-Jun-18 21:00N 34°41' E 135°11'0 0.0
2018-Jun-18 20:30N 34°41' E 135°11'0 0.0
2018-Jun-18 19:54N 34°41' E 135°11'0 0.0
2018-Jun-18 19:30N 34°41' E 135°11'0 0.0
2018-Jun-18 19:00N 34°41' E 135°11'0 0.0
2018-Jun-18 18:30N 34°41' E 135°11'0 0.0
2018-Jun-18 18:00N 34°41' E 135°11'0 0.0
2018-Jun-18 17:30N 34°41' E 135°11'0 0.0
2018-Jun-18 16:54N 34°41' E 135°11'0 0.0
2018-Jun-18 16:24N 34°41' E 135°11'0 0.0
2018-Jun-18 16:00N 34°41' E 135°11'0 0.0
2018-Jun-18 15:18N 34°41' E 135°11'0 0.0
2018-Jun-18 15:00N 34°41' E 135°11'0 0.0
2018-Jun-18 14:30N 34°41' E 135°11'0 0.0
2018-Jun-18 14:00N 34°41' E 135°11'0 0.0
2018-Jun-18 13:30N 34°41' E 135°11'0 0.0
2018-Jun-18 13:00N 34°41' E 135°11'0 0.0
2018-Jun-18 12:30N 34°41' E 135°11'0 0.0
2018-Jun-18 12:00N 34°41' E 135°11'0 0.0
2018-Jun-18 11:24N 34°41' E 135°11'0 0.0
2018-Jun-18 11:00N 34°41' E 135°11'0 0.0
2018-Jun-18 10:30N 34°41' E 135°11'0 0.0
2018-Jun-18 09:54N 34°41' E 135°11'0 0.0
2018-Jun-18 09:30N 34°41' E 135°11'0 0.0
2018-Jun-18 08:54N 34°41' E 135°11'0 0.0
2018-Jun-18 08:30N 34°41' E 135°11'0 0.0
2018-Jun-18 08:00N 34°41' E 135°11'0 0.0
2018-Jun-18 07:30N 34°41' E 135°11'0 0.0
2018-Jun-18 07:00N 34°41' E 135°11'0 0.0
2018-Jun-18 06:18N 34°41' E 135°11'0 0.0
2018-Jun-18 06:00N 34°41' E 135°11'0 0.0
2018-Jun-18 05:30N 34°41' E 135°11'0 0.0
2018-Jun-18 05:00N 34°41' E 135°11'0 0.0
2018-Jun-18 04:18N 34°41' E 135°11'0 0.0
2018-Jun-18 03:42N 34°41' E 135°11'0 0.0
2018-Jun-18 03:30N 34°41' E 135°11'0 0.0
2018-Jun-18 02:48N 34°41' E 135°11'0 0.0
2018-Jun-18 02:30N 34°41' E 135°11'0 0.0
2018-Jun-18 02:00N 34°41' E 135°11'0 0.0
2018-Jun-18 01:24N 34°41' E 135°11'0 0.0
2018-Jun-18 01:00N 34°41' E 135°11'0 0.0
2018-Jun-17 23:54N 34°41' E 135°11'0 0.0
2018-Jun-17 23:18N 34°41' E 135°11'0 0.0
2018-Jun-17 23:00N 34°41' E 135°11'0 0.0
2018-Jun-17 22:30N 34°41' E 135°11'0 0.0
2018-Jun-17 21:54N 34°41' E 135°11'0 0.0
2018-Jun-17 21:30N 34°41' E 135°11'0 0.0
2018-Jun-17 21:00N 34°41' E 135°11'0 0.0
2018-Jun-17 20:30N 34°41' E 135°11'0 0.0
2018-Jun-17 19:54N 34°41' E 135°11'0 0.0
2018-Jun-17 19:30N 34°41' E 135°11'0 0.0
2018-Jun-17 19:00N 34°41' E 135°11'0 0.0
2018-Jun-17 18:30N 34°41' E 135°11'0 0.0
2018-Jun-17 18:00N 34°41' E 135°11'0 0.0
2018-Jun-17 17:30N 34°41' E 135°11'0 0.0
2018-Jun-17 17:00N 34°41' E 135°11'0 0.0
2018-Jun-17 16:30N 34°41' E 135°11'0 0.0
2018-Jun-17 16:00N 34°41' E 135°11'0 0.0
2018-Jun-17 15:24N 34°41' E 135°11'0 0.0
2018-Jun-17 15:00N 34°41' E 135°11'0 0.0
2018-Jun-17 14:24N 34°41' E 135°11'0 0.0
2018-Jun-17 14:00N 34°41' E 135°11'  

Dump ship's entire track history